sensor_id;sensor_type;location;lat;lon;timestamp;P1;durP1;ratioP1;P2;durP2;ratioP2
61590;SDS011;71994;52.410;-1.966;2023-11-19T00:00:20;4.07;;;1.30;;
61590;SDS011;71994;52.410;-1.966;2023-11-19T00:03:29;4.32;;;1.20;;
61590;SDS011;71994;52.410;-1.966;2023-11-19T00:06:37;4.78;;;1.58;;
61590;SDS011;71994;52.410;-1.966;2023-11-19T00:09:43;4.47;;;1.40;;
61590;SDS011;71994;52.410;-1.966;2023-11-19T00:12:50;4.18;;;1.38;;
61590;SDS011;71994;52.410;-1.966;2023-11-19T00:15:59;5.85;;;1.90;;
61590;SDS011;71994;52.410;-1.966;2023-11-19T00:19:20;5.63;;;1.70;;
61590;SDS011;71994;52.410;-1.966;2023-11-19T00:22:26;5.37;;;1.50;;
61590;SDS011;71994;52.410;-1.966;2023-11-19T00:25:35;6.10;;;1.50;;
61590;SDS011;71994;52.410;-1.966;2023-11-19T00:28:41;5.93;;;1.55;;
61590;SDS011;71994;52.410;-1.966;2023-11-19T00:31:47;4.13;;;1.30;;
61590;SDS011;71994;52.410;-1.966;2023-11-19T00:34:56;6.85;;;1.50;;
61590;SDS011;71994;52.410;-1.966;2023-11-19T00:38:08;4.38;;;1.27;;
61590;SDS011;71994;52.410;-1.966;2023-11-19T00:41:15;4.47;;;1.48;;
61590;SDS011;71994;52.410;-1.966;2023-11-19T00:44:21;4.93;;;1.60;;
61590;SDS011;71994;52.410;-1.966;2023-11-19T00:47:27;5.72;;;1.80;;
61590;SDS011;71994;52.410;-1.966;2023-11-19T00:50:37;4.28;;;1.23;;
61590;SDS011;71994;52.410;-1.966;2023-11-19T00:53:46;4.85;;;1.35;;
61590;SDS011;71994;52.410;-1.966;2023-11-19T00:56:52;4.28;;;1.27;;
61590;SDS011;71994;52.410;-1.966;2023-11-19T00:59:59;4.70;;;1.17;;
61590;SDS011;71994;52.410;-1.966;2023-11-19T01:03:11;4.75;;;1.58;;
61590;SDS011;71994;52.410;-1.966;2023-11-19T01:06:29;3.83;;;1.15;;
61590;SDS011;71994;52.410;-1.966;2023-11-19T01:09:35;4.53;;;1.58;;
61590;SDS011;71994;52.410;-1.966;2023-11-19T01:12:42;4.72;;;1.50;;
61590;SDS011;71994;52.410;-1.966;2023-11-19T01:15:48;3.20;;;1.13;;
61590;SDS011;71994;52.410;-1.966;2023-11-19T01:18:55;4.30;;;1.20;;
61590;SDS011;71994;52.410;-1.966;2023-11-19T01:22:04;5.85;;;1.50;;
61590;SDS011;71994;52.410;-1.966;2023-11-19T01:25:10;4.07;;;1.30;;
61590;SDS011;71994;52.410;-1.966;2023-11-19T01:28:16;3.97;;;1.33;;
61590;SDS011;71994;52.410;-1.966;2023-11-19T01:31:22;5.07;;;1.48;;
61590;SDS011;71994;52.410;-1.966;2023-11-19T01:34:29;3.92;;;1.25;;
61590;SDS011;71994;52.410;-1.966;2023-11-19T01:37:40;3.92;;;1.10;;
61590;SDS011;71994;52.410;-1.966;2023-11-19T01:40:49;5.20;;;1.60;;
61590;SDS011;71994;52.410;-1.966;2023-11-19T01:43:55;3.95;;;1.30;;
61590;SDS011;71994;52.410;-1.966;2023-11-19T01:47:01;3.88;;;1.23;;
61590;SDS011;71994;52.410;-1.966;2023-11-19T01:50:08;5.00;;;1.08;;
61590;SDS011;71994;52.410;-1.966;2023-11-19T01:53:18;6.13;;;1.70;;
61590;SDS011;71994;52.410;-1.966;2023-11-19T01:56:24;4.00;;;1.23;;
61590;SDS011;71994;52.410;-1.966;2023-11-19T01:59:34;4.95;;;1.55;;
61590;SDS011;71994;52.410;-1.966;2023-11-19T02:02:43;5.88;;;1.40;;
61590;SDS011;71994;52.410;-1.966;2023-11-19T02:05:51;5.63;;;1.17;;
61590;SDS011;71994;52.410;-1.966;2023-11-19T02:09:09;5.15;;;1.35;;
61590;SDS011;71994;52.410;-1.966;2023-11-19T02:12:16;4.40;;;1.57;;
61590;SDS011;71994;52.410;-1.966;2023-11-19T02:15:24;3.20;;;1.27;;
61590;SDS011;71994;52.410;-1.966;2023-11-19T02:18:37;4.20;;;1.10;;
61590;SDS011;71994;52.410;-1.966;2023-11-19T02:21:43;5.00;;;1.48;;
61590;SDS011;71994;52.410;-1.966;2023-11-19T02:24:54;3.65;;;1.35;;
61590;SDS011;71994;52.410;-1.966;2023-11-19T02:28:10;4.10;;;1.15;;
61590;SDS011;71994;52.410;-1.966;2023-11-19T02:31:21;4.68;;;1.25;;
61590;SDS011;71994;52.410;-1.966;2023-11-19T02:34:30;4.63;;;1.40;;
61590;SDS011;71994;52.410;-1.966;2023-11-19T02:37:37;4.22;;;1.25;;
61590;SDS011;71994;52.410;-1.966;2023-11-19T02:40:47;3.47;;;1.10;;
61590;SDS011;71994;52.410;-1.966;2023-11-19T02:43:56;4.03;;;1.23;;
61590;SDS011;71994;52.410;-1.966;2023-11-19T02:47:05;4.15;;;1.15;;
61590;SDS011;71994;52.410;-1.966;2023-11-19T02:50:16;3.88;;;1.08;;
61590;SDS011;71994;52.410;-1.966;2023-11-19T02:53:27;4.00;;;1.23;;
61590;SDS011;71994;52.410;-1.966;2023-11-19T02:56:34;5.53;;;1.35;;
61590;SDS011;71994;52.410;-1.966;2023-11-19T02:59:45;3.72;;;1.30;;
61590;SDS011;71994;52.410;-1.966;2023-11-19T03:02:51;2.73;;;1.00;;
61590;SDS011;71994;52.410;-1.966;2023-11-19T03:06:02;3.20;;;1.10;;
61590;SDS011;71994;52.410;-1.966;2023-11-19T03:09:09;3.58;;;1.00;;
61590;SDS011;71994;52.410;-1.966;2023-11-19T03:12:15;3.80;;;1.13;;
61590;SDS011;71994;52.410;-1.966;2023-11-19T03:19:06;3.17;;;1.02;;
61590;SDS011;71994;52.410;-1.966;2023-11-19T03:22:29;3.50;;;0.90;;
61590;SDS011;71994;52.410;-1.966;2023-11-19T03:25:39;4.68;;;1.25;;
61590;SDS011;71994;52.410;-1.966;2023-11-19T03:28:50;3.65;;;0.95;;
61590;SDS011;71994;52.410;-1.966;2023-11-19T03:31:59;4.82;;;1.30;;
61590;SDS011;71994;52.410;-1.966;2023-11-19T03:35:08;5.28;;;1.10;;
61590;SDS011;71994;52.410;-1.966;2023-11-19T03:38:25;3.50;;;1.13;;
61590;SDS011;71994;52.410;-1.966;2023-11-19T03:41:45;3.72;;;1.17;;
61590;SDS011;71994;52.410;-1.966;2023-11-19T03:45:00;4.13;;;1.27;;
61590;SDS011;71994;52.410;-1.966;2023-11-19T03:48:20;4.57;;;1.33;;
61590;SDS011;71994;52.410;-1.966;2023-11-19T03:51:46;3.65;;;1.15;;
61590;SDS011;71994;52.410;-1.966;2023-11-19T03:54:58;3.47;;;0.95;;
61590;SDS011;71994;52.410;-1.966;2023-11-19T03:58:05;3.45;;;1.05;;
61590;SDS011;71994;52.410;-1.966;2023-11-19T04:01:12;3.45;;;1.23;;
61590;SDS011;71994;52.410;-1.966;2023-11-19T04:04:21;3.38;;;1.00;;
61590;SDS011;71994;52.410;-1.966;2023-11-19T04:07:27;3.90;;;1.37;;
61590;SDS011;71994;52.410;-1.966;2023-11-19T04:10:38;3.53;;;1.08;;
61590;SDS011;71994;52.410;-1.966;2023-11-19T04:13:44;4.97;;;1.38;;
61590;SDS011;71994;52.410;-1.966;2023-11-19T04:16:51;3.15;;;1.10;;
61590;SDS011;71994;52.410;-1.966;2023-11-19T04:20:00;3.35;;;1.10;;
61590;SDS011;71994;52.410;-1.966;2023-11-19T04:23:06;3.40;;;1.02;;
61590;SDS011;71994;52.410;-1.966;2023-11-19T04:26:16;3.58;;;1.25;;
61590;SDS011;71994;52.410;-1.966;2023-11-19T04:29:22;4.65;;;1.08;;
61590;SDS011;71994;52.410;-1.966;2023-11-19T04:32:28;3.38;;;1.08;;
61590;SDS011;71994;52.410;-1.966;2023-11-19T04:35:37;3.83;;;1.13;;
61590;SDS011;71994;52.410;-1.966;2023-11-19T04:38:45;3.70;;;1.00;;
61590;SDS011;71994;52.410;-1.966;2023-11-19T04:41:51;3.90;;;0.98;;
61590;SDS011;71994;52.410;-1.966;2023-11-19T04:44:57;3.40;;;0.88;;
61590;SDS011;71994;52.410;-1.966;2023-11-19T04:48:03;3.05;;;1.00;;
61590;SDS011;71994;52.410;-1.966;2023-11-19T04:51:14;4.05;;;1.20;;
61590;SDS011;71994;52.410;-1.966;2023-11-19T04:54:20;4.07;;;0.85;;
61590;SDS011;71994;52.410;-1.966;2023-11-19T04:57:27;3.50;;;1.20;;
61590;SDS011;71994;52.410;-1.966;2023-11-19T05:00:35;2.60;;;1.00;;
61590;SDS011;71994;52.410;-1.966;2023-11-19T05:03:44;3.83;;;1.10;;
61590;SDS011;71994;52.410;-1.966;2023-11-19T05:06:53;3.95;;;1.38;;
61590;SDS011;71994;52.410;-1.966;2023-11-19T05:10:00;4.22;;;1.30;;
61590;SDS011;71994;52.410;-1.966;2023-11-19T05:13:06;3.78;;;0.90;;
61590;SDS011;71994;52.410;-1.966;2023-11-19T05:16:13;3.47;;;0.88;;
61590;SDS011;71994;52.410;-1.966;2023-11-19T05:19:20;3.42;;;1.00;;
61590;SDS011;71994;52.410;-1.966;2023-11-19T05:22:29;2.85;;;1.00;;
61590;SDS011;71994;52.410;-1.966;2023-11-19T05:25:37;3.70;;;1.00;;
61590;SDS011;71994;52.410;-1.966;2023-11-19T05:28:45;2.60;;;1.02;;
61590;SDS011;71994;52.410;-1.966;2023-11-19T05:31:54;3.63;;;1.15;;
61590;SDS011;71994;52.410;-1.966;2023-11-19T05:35:07;4.47;;;1.10;;
61590;SDS011;71994;52.410;-1.966;2023-11-19T05:38:16;2.90;;;0.80;;
61590;SDS011;71994;52.410;-1.966;2023-11-19T05:41:23;3.75;;;1.08;;
61590;SDS011;71994;52.410;-1.966;2023-11-19T05:44:29;3.17;;;0.88;;
61590;SDS011;71994;52.410;-1.966;2023-11-19T05:47:36;3.75;;;1.10;;
61590;SDS011;71994;52.410;-1.966;2023-11-19T05:50:42;2.85;;;0.85;;
61590;SDS011;71994;52.410;-1.966;2023-11-19T05:53:51;4.30;;;1.02;;
61590;SDS011;71994;52.410;-1.966;2023-11-19T06:00:08;3.90;;;0.98;;
61590;SDS011;71994;52.410;-1.966;2023-11-19T06:03:17;3.53;;;1.10;;
61590;SDS011;71994;52.410;-1.966;2023-11-19T06:06:24;2.40;;;0.85;;
61590;SDS011;71994;52.410;-1.966;2023-11-19T06:09:33;4.18;;;1.20;;
61590;SDS011;71994;52.410;-1.966;2023-11-19T06:12:39;3.13;;;1.00;;
61590;SDS011;71994;52.410;-1.966;2023-11-19T06:15:45;3.47;;;1.13;;
61590;SDS011;71994;52.410;-1.966;2023-11-19T06:18:58;4.28;;;1.20;;
61590;SDS011;71994;52.410;-1.966;2023-11-19T06:22:05;3.22;;;0.93;;
61590;SDS011;71994;52.410;-1.966;2023-11-19T06:25:14;3.55;;;0.95;;
61590;SDS011;71994;52.410;-1.966;2023-11-19T06:28:23;4.82;;;1.40;;
61590;SDS011;71994;52.410;-1.966;2023-11-19T06:31:30;3.92;;;0.98;;
61590;SDS011;71994;52.410;-1.966;2023-11-19T06:34:38;2.63;;;1.00;;
61590;SDS011;71994;52.410;-1.966;2023-11-19T06:37:44;2.30;;;1.00;;
61590;SDS011;71994;52.410;-1.966;2023-11-19T06:40:53;2.88;;;1.00;;
61590;SDS011;71994;52.410;-1.966;2023-11-19T06:44:02;3.22;;;1.00;;
61590;SDS011;71994;52.410;-1.966;2023-11-19T06:47:08;3.40;;;0.83;;
61590;SDS011;71994;52.410;-1.966;2023-11-19T06:50:15;3.45;;;1.00;;
61590;SDS011;71994;52.410;-1.966;2023-11-19T06:53:21;3.65;;;0.90;;
61590;SDS011;71994;52.410;-1.966;2023-11-19T06:56:30;4.63;;;1.27;;
61590;SDS011;71994;52.410;-1.966;2023-11-19T06:59:36;3.67;;;1.25;;
61590;SDS011;71994;52.410;-1.966;2023-11-19T07:02:43;3.20;;;1.10;;
61590;SDS011;71994;52.410;-1.966;2023-11-19T07:05:49;3.42;;;1.00;;
61590;SDS011;71994;52.410;-1.966;2023-11-19T07:08:56;3.28;;;0.98;;
61590;SDS011;71994;52.410;-1.966;2023-11-19T07:12:08;3.35;;;1.02;;
61590;SDS011;71994;52.410;-1.966;2023-11-19T07:15:16;2.75;;;0.98;;
61590;SDS011;71994;52.410;-1.966;2023-11-19T07:18:23;4.28;;;1.08;;
61590;SDS011;71994;52.410;-1.966;2023-11-19T07:21:29;7.28;;;1.05;;
61590;SDS011;71994;52.410;-1.966;2023-11-19T07:24:35;4.60;;;1.30;;
61590;SDS011;71994;52.410;-1.966;2023-11-19T07:27:47;2.97;;;0.90;;
61590;SDS011;71994;52.410;-1.966;2023-11-19T07:30:53;2.92;;;1.00;;
61590;SDS011;71994;52.410;-1.966;2023-11-19T07:33:59;2.03;;;0.82;;
61590;SDS011;71994;52.410;-1.966;2023-11-19T07:37:11;4.57;;;1.02;;
61590;SDS011;71994;52.410;-1.966;2023-11-19T07:40:23;3.25;;;0.90;;
61590;SDS011;71994;52.410;-1.966;2023-11-19T07:43:32;2.63;;;0.80;;
61590;SDS011;71994;52.410;-1.966;2023-11-19T07:46:41;3.00;;;1.05;;
61590;SDS011;71994;52.410;-1.966;2023-11-19T07:49:49;2.40;;;0.95;;
61590;SDS011;71994;52.410;-1.966;2023-11-19T07:52:56;3.22;;;0.95;;
61590;SDS011;71994;52.410;-1.966;2023-11-19T07:56:03;4.00;;;0.88;;
61590;SDS011;71994;52.410;-1.966;2023-11-19T07:59:12;4.05;;;1.02;;
61590;SDS011;71994;52.410;-1.966;2023-11-19T08:02:18;2.88;;;0.75;;
61590;SDS011;71994;52.410;-1.966;2023-11-19T08:05:26;2.47;;;0.65;;
61590;SDS011;71994;52.410;-1.966;2023-11-19T08:08:32;2.05;;;0.80;;
61590;SDS011;71994;52.410;-1.966;2023-11-19T08:11:40;2.88;;;0.75;;
61590;SDS011;71994;52.410;-1.966;2023-11-19T08:14:50;1.83;;;0.70;;
61590;SDS011;71994;52.410;-1.966;2023-11-19T08:17:56;2.03;;;0.70;;
61590;SDS011;71994;52.410;-1.966;2023-11-19T08:21:17;2.47;;;0.73;;
61590;SDS011;71994;52.410;-1.966;2023-11-19T08:24:26;4.40;;;1.07;;
61590;SDS011;71994;52.410;-1.966;2023-11-19T08:27:33;1.98;;;0.80;;
61590;SDS011;71994;52.410;-1.966;2023-11-19T08:30:44;2.35;;;0.82;;
61590;SDS011;71994;52.410;-1.966;2023-11-19T08:33:50;2.57;;;0.90;;
61590;SDS011;71994;52.410;-1.966;2023-11-19T08:36:57;2.28;;;0.68;;
61590;SDS011;71994;52.410;-1.966;2023-11-19T08:40:03;2.42;;;0.80;;
61590;SDS011;71994;52.410;-1.966;2023-11-19T08:43:10;3.35;;;0.80;;
61590;SDS011;71994;52.410;-1.966;2023-11-19T08:46:25;2.17;;;0.60;;
61590;SDS011;71994;52.410;-1.966;2023-11-19T08:49:32;3.83;;;1.10;;
61590;SDS011;71994;52.410;-1.966;2023-11-19T08:52:42;2.33;;;0.77;;
61590;SDS011;71994;52.410;-1.966;2023-11-19T08:55:53;2.30;;;0.70;;
61590;SDS011;71994;52.410;-1.966;2023-11-19T08:59:00;2.70;;;1.00;;
61590;SDS011;71994;52.410;-1.966;2023-11-19T09:02:15;3.10;;;1.00;;
61590;SDS011;71994;52.410;-1.966;2023-11-19T09:05:24;2.67;;;0.95;;
61590;SDS011;71994;52.410;-1.966;2023-11-19T09:08:31;2.50;;;0.93;;
61590;SDS011;71994;52.410;-1.966;2023-11-19T09:11:38;2.00;;;0.70;;
61590;SDS011;71994;52.410;-1.966;2023-11-19T09:14:44;3.92;;;1.08;;
61590;SDS011;71994;52.410;-1.966;2023-11-19T09:17:54;4.03;;;0.90;;
61590;SDS011;71994;52.410;-1.966;2023-11-19T09:21:02;1.73;;;0.60;;
61590;SDS011;71994;52.410;-1.966;2023-11-19T09:24:09;3.75;;;0.90;;
61590;SDS011;71994;52.410;-1.966;2023-11-19T09:27:15;3.35;;;1.13;;
61590;SDS011;71994;52.410;-1.966;2023-11-19T09:33:39;1.98;;;0.68;;
61590;SDS011;71994;52.410;-1.966;2023-11-19T09:36:45;3.22;;;0.80;;
61590;SDS011;71994;52.410;-1.966;2023-11-19T09:39:51;3.72;;;0.88;;
61590;SDS011;71994;52.410;-1.966;2023-11-19T09:42:57;1.73;;;0.70;;
61590;SDS011;71994;52.410;-1.966;2023-11-19T09:46:04;3.45;;;1.05;;
61590;SDS011;71994;52.410;-1.966;2023-11-19T09:49:17;2.95;;;0.77;;
61590;SDS011;71994;52.410;-1.966;2023-11-19T09:52:28;2.83;;;0.68;;
61590;SDS011;71994;52.410;-1.966;2023-11-19T09:55:35;2.47;;;0.90;;
61590;SDS011;71994;52.410;-1.966;2023-11-19T09:58:41;3.13;;;0.98;;
61590;SDS011;71994;52.410;-1.966;2023-11-19T10:01:47;3.97;;;0.70;;
61590;SDS011;71994;52.410;-1.966;2023-11-19T10:04:58;2.88;;;0.93;;
61590;SDS011;71994;52.410;-1.966;2023-11-19T10:08:08;3.20;;;1.05;;
61590;SDS011;71994;52.410;-1.966;2023-11-19T10:11:17;2.88;;;1.00;;
61590;SDS011;71994;52.410;-1.966;2023-11-19T10:14:23;2.20;;;0.82;;
61590;SDS011;71994;52.410;-1.966;2023-11-19T10:17:32;3.08;;;0.88;;
61590;SDS011;71994;52.410;-1.966;2023-11-19T10:20:42;2.50;;;0.80;;
61590;SDS011;71994;52.410;-1.966;2023-11-19T10:23:48;2.45;;;0.90;;
61590;SDS011;71994;52.410;-1.966;2023-11-19T10:26:56;3.00;;;0.98;;
61590;SDS011;71994;52.410;-1.966;2023-11-19T10:30:05;3.58;;;1.08;;
61590;SDS011;71994;52.410;-1.966;2023-11-19T10:33:13;2.38;;;0.73;;
61590;SDS011;71994;52.410;-1.966;2023-11-19T10:36:25;2.80;;;0.80;;
61590;SDS011;71994;52.410;-1.966;2023-11-19T10:39:51;3.08;;;0.70;;
61590;SDS011;71994;52.410;-1.966;2023-11-19T10:43:01;3.05;;;0.70;;
61590;SDS011;71994;52.410;-1.966;2023-11-19T10:46:10;2.72;;;0.95;;
61590;SDS011;71994;52.410;-1.966;2023-11-19T10:49:17;2.10;;;0.70;;
61590;SDS011;71994;52.410;-1.966;2023-11-19T10:52:29;2.58;;;0.80;;
61590;SDS011;71994;52.410;-1.966;2023-11-19T10:55:38;3.90;;;0.80;;
61590;SDS011;71994;52.410;-1.966;2023-11-19T10:58:46;2.58;;;0.77;;
61590;SDS011;71994;52.410;-1.966;2023-11-19T11:01:57;3.17;;;0.88;;
61590;SDS011;71994;52.410;-1.966;2023-11-19T11:05:06;4.10;;;1.10;;
61590;SDS011;71994;52.410;-1.966;2023-11-19T11:08:17;2.50;;;1.00;;
61590;SDS011;71994;52.410;-1.966;2023-11-19T11:14:30;2.72;;;0.85;;
61590;SDS011;71994;52.410;-1.966;2023-11-19T11:17:39;2.95;;;0.77;;
61590;SDS011;71994;52.410;-1.966;2023-11-19T11:20:47;2.42;;;0.70;;
61590;SDS011;71994;52.410;-1.966;2023-11-19T11:24:07;2.80;;;0.80;;
61590;SDS011;71994;52.410;-1.966;2023-11-19T11:31:22;3.35;;;0.95;;
61590;SDS011;71994;52.410;-1.966;2023-11-19T11:34:44;3.33;;;0.70;;
61590;SDS011;71994;52.410;-1.966;2023-11-19T11:38:07;1.92;;;0.70;;
61590;SDS011;71994;52.410;-1.966;2023-11-19T11:41:21;1.73;;;0.55;;
61590;SDS011;71994;52.410;-1.966;2023-11-19T11:48:18;1.40;;;0.63;;
61590;SDS011;71994;52.410;-1.966;2023-11-19T11:55:04;2.67;;;0.90;;
61590;SDS011;71994;52.410;-1.966;2023-11-19T11:58:15;2.35;;;0.80;;
61590;SDS011;71994;52.410;-1.966;2023-11-19T12:01:25;1.67;;;0.60;;
61590;SDS011;71994;52.410;-1.966;2023-11-19T12:04:32;1.95;;;0.70;;
61590;SDS011;71994;52.410;-1.966;2023-11-19T12:07:40;1.67;;;0.70;;
61590;SDS011;71994;52.410;-1.966;2023-11-19T12:10:47;1.65;;;0.70;;
61590;SDS011;71994;52.410;-1.966;2023-11-19T12:13:57;2.92;;;1.02;;
61590;SDS011;71994;52.410;-1.966;2023-11-19T12:17:12;1.92;;;0.90;;
61590;SDS011;71994;52.410;-1.966;2023-11-19T12:20:49;2.13;;;0.70;;
61590;SDS011;71994;52.410;-1.966;2023-11-19T12:23:55;2.07;;;0.70;;
61590;SDS011;71994;52.410;-1.966;2023-11-19T12:27:09;2.22;;;1.00;;
61590;SDS011;71994;52.410;-1.966;2023-11-19T12:30:26;3.10;;;1.00;;
61590;SDS011;71994;52.410;-1.966;2023-11-19T12:33:33;1.75;;;0.95;;
61590;SDS011;71994;52.410;-1.966;2023-11-19T12:36:41;4.18;;;1.00;;
61590;SDS011;71994;52.410;-1.966;2023-11-19T12:39:48;2.22;;;0.90;;
61590;SDS011;71994;52.410;-1.966;2023-11-19T12:42:54;2.03;;;0.88;;
61590;SDS011;71994;52.410;-1.966;2023-11-19T12:46:11;2.55;;;0.80;;
61590;SDS011;71994;52.410;-1.966;2023-11-19T12:49:23;2.10;;;1.00;;
61590;SDS011;71994;52.410;-1.966;2023-11-19T12:52:30;2.13;;;0.80;;
61590;SDS011;71994;52.410;-1.966;2023-11-19T12:55:38;1.48;;;0.70;;
61590;SDS011;71994;52.410;-1.966;2023-11-19T12:58:45;1.75;;;0.75;;
61590;SDS011;71994;52.410;-1.966;2023-11-19T13:01:57;2.28;;;1.00;;
61590;SDS011;71994;52.410;-1.966;2023-11-19T13:05:19;2.47;;;0.80;;
61590;SDS011;71994;52.410;-1.966;2023-11-19T13:08:36;1.60;;;0.90;;
61590;SDS011;71994;52.410;-1.966;2023-11-19T13:11:43;2.10;;;0.70;;
61590;SDS011;71994;52.410;-1.966;2023-11-19T13:14:49;1.15;;;0.60;;
61590;SDS011;71994;52.410;-1.966;2023-11-19T13:18:01;2.22;;;0.90;;
61590;SDS011;71994;52.410;-1.966;2023-11-19T13:21:10;1.83;;;0.88;;
61590;SDS011;71994;52.410;-1.966;2023-11-19T13:24:17;1.92;;;0.73;;
61590;SDS011;71994;52.410;-1.966;2023-11-19T13:27:28;1.88;;;0.80;;
61590;SDS011;71994;52.410;-1.966;2023-11-19T13:30:34;2.33;;;0.70;;
61590;SDS011;71994;52.410;-1.966;2023-11-19T13:33:43;1.67;;;0.70;;
61590;SDS011;71994;52.410;-1.966;2023-11-19T13:36:49;1.93;;;0.87;;
61590;SDS011;71994;52.410;-1.966;2023-11-19T13:39:55;2.20;;;0.90;;
61590;SDS011;71994;52.410;-1.966;2023-11-19T13:43:02;1.00;;;0.57;;
61590;SDS011;71994;52.410;-1.966;2023-11-19T13:46:10;1.75;;;0.80;;
61590;SDS011;71994;52.410;-1.966;2023-11-19T13:49:20;1.80;;;0.90;;
61590;SDS011;71994;52.410;-1.966;2023-11-19T13:52:26;1.87;;;0.77;;
61590;SDS011;71994;52.410;-1.966;2023-11-19T13:55:32;1.63;;;0.70;;
61590;SDS011;71994;52.410;-1.966;2023-11-19T13:58:39;2.10;;;0.90;;
61590;SDS011;71994;52.410;-1.966;2023-11-19T14:01:45;1.35;;;0.60;;
61590;SDS011;71994;52.410;-1.966;2023-11-19T14:04:54;2.47;;;0.93;;
61590;SDS011;71994;52.410;-1.966;2023-11-19T14:08:01;1.58;;;0.70;;
61590;SDS011;71994;52.410;-1.966;2023-11-19T14:11:13;1.35;;;0.63;;
61590;SDS011;71994;52.410;-1.966;2023-11-19T14:14:20;1.27;;;0.57;;
61590;SDS011;71994;52.410;-1.966;2023-11-19T14:17:26;1.52;;;0.63;;
61590;SDS011;71994;52.410;-1.966;2023-11-19T14:20:35;2.15;;;0.70;;
61590;SDS011;71994;52.410;-1.966;2023-11-19T14:23:42;1.20;;;0.60;;
61590;SDS011;71994;52.410;-1.966;2023-11-19T14:26:48;1.60;;;0.70;;
61590;SDS011;71994;52.410;-1.966;2023-11-19T14:29:54;2.00;;;0.70;;
61590;SDS011;71994;52.410;-1.966;2023-11-19T14:33:02;1.40;;;0.50;;
61590;SDS011;71994;52.410;-1.966;2023-11-19T14:36:14;0.90;;;0.50;;
61590;SDS011;71994;52.410;-1.966;2023-11-19T14:39:20;1.50;;;0.80;;
61590;SDS011;71994;52.410;-1.966;2023-11-19T14:42:27;1.77;;;0.77;;
61590;SDS011;71994;52.410;-1.966;2023-11-19T14:45:33;1.25;;;0.68;;
61590;SDS011;71994;52.410;-1.966;2023-11-19T14:48:39;2.67;;;0.90;;
61590;SDS011;71994;52.410;-1.966;2023-11-19T14:51:48;1.27;;;0.57;;
61590;SDS011;71994;52.410;-1.966;2023-11-19T14:54:54;1.37;;;0.70;;
61590;SDS011;71994;52.410;-1.966;2023-11-19T14:58:00;1.08;;;0.50;;
61590;SDS011;71994;52.410;-1.966;2023-11-19T15:01:11;1.67;;;0.70;;
61590;SDS011;71994;52.410;-1.966;2023-11-19T15:04:17;1.40;;;0.70;;
61590;SDS011;71994;52.410;-1.966;2023-11-19T15:07:26;1.20;;;0.57;;
61590;SDS011;71994;52.410;-1.966;2023-11-19T15:10:33;1.13;;;0.60;;
61590;SDS011;71994;52.410;-1.966;2023-11-19T15:13:43;1.25;;;0.63;;
61590;SDS011;71994;52.410;-1.966;2023-11-19T15:16:49;2.20;;;0.70;;
61590;SDS011;71994;52.410;-1.966;2023-11-19T15:19:55;1.30;;;0.57;;
61590;SDS011;71994;52.410;-1.966;2023-11-19T15:23:04;1.20;;;0.60;;
61590;SDS011;71994;52.410;-1.966;2023-11-19T15:29:18;1.70;;;0.60;;
61590;SDS011;71994;52.410;-1.966;2023-11-19T15:32:27;1.33;;;0.63;;
61590;SDS011;71994;52.410;-1.966;2023-11-19T15:35:34;1.63;;;0.60;;
61590;SDS011;71994;52.410;-1.966;2023-11-19T15:38:47;1.90;;;0.60;;
61590;SDS011;71994;52.410;-1.966;2023-11-19T15:41:54;2.45;;;0.90;;
61590;SDS011;71994;52.410;-1.966;2023-11-19T15:45:02;3.85;;;0.93;;
61590;SDS011;71994;52.410;-1.966;2023-11-19T15:48:09;4.10;;;0.75;;
61590;SDS011;71994;52.410;-1.966;2023-11-19T15:51:16;3.63;;;0.77;;
61590;SDS011;71994;52.410;-1.966;2023-11-19T15:54:25;2.80;;;0.70;;
61590;SDS011;71994;52.410;-1.966;2023-11-19T15:57:34;3.47;;;0.90;;
61590;SDS011;71994;52.410;-1.966;2023-11-19T16:00:44;2.22;;;0.90;;
61590;SDS011;71994;52.410;-1.966;2023-11-19T16:03:53;2.33;;;0.70;;
61590;SDS011;71994;52.410;-1.966;2023-11-19T16:06:59;1.63;;;0.60;;
61590;SDS011;71994;52.410;-1.966;2023-11-19T16:10:09;2.20;;;0.90;;
61590;SDS011;71994;52.410;-1.966;2023-11-19T16:13:17;2.55;;;0.85;;
61590;SDS011;71994;52.410;-1.966;2023-11-19T16:16:24;1.75;;;0.68;;
61590;SDS011;71994;52.410;-1.966;2023-11-19T16:19:36;2.22;;;0.60;;
61590;SDS011;71994;52.410;-1.966;2023-11-19T16:22:43;3.40;;;0.90;;
61590;SDS011;71994;52.410;-1.966;2023-11-19T16:25:55;3.08;;;0.70;;
61590;SDS011;71994;52.410;-1.966;2023-11-19T16:29:01;1.50;;;0.60;;
61590;SDS011;71994;52.410;-1.966;2023-11-19T16:32:07;1.77;;;0.77;;
61590;SDS011;71994;52.410;-1.966;2023-11-19T16:35:14;2.85;;;0.70;;
61590;SDS011;71994;52.410;-1.966;2023-11-19T16:38:21;1.15;;;0.50;;
61590;SDS011;71994;52.410;-1.966;2023-11-19T16:41:31;3.15;;;1.00;;
61590;SDS011;71994;52.410;-1.966;2023-11-19T16:47:46;2.13;;;0.70;;
61590;SDS011;71994;52.410;-1.966;2023-11-19T16:50:52;2.67;;;0.77;;
61590;SDS011;71994;52.410;-1.966;2023-11-19T16:53:59;1.30;;;0.60;;
61590;SDS011;71994;52.410;-1.966;2023-11-19T16:57:10;1.55;;;0.60;;
61590;SDS011;71994;52.410;-1.966;2023-11-19T17:03:23;1.95;;;0.70;;
61590;SDS011;71994;52.410;-1.966;2023-11-19T17:06:32;2.88;;;0.80;;
61590;SDS011;71994;52.410;-1.966;2023-11-19T17:09:43;1.75;;;0.82;;
61590;SDS011;71994;52.410;-1.966;2023-11-19T17:12:52;1.75;;;0.80;;
61590;SDS011;71994;52.410;-1.966;2023-11-19T17:15:59;2.72;;;0.70;;
61590;SDS011;71994;52.410;-1.966;2023-11-19T17:19:06;2.53;;;0.73;;
61590;SDS011;71994;52.410;-1.966;2023-11-19T17:22:12;1.67;;;0.60;;
61590;SDS011;71994;52.410;-1.966;2023-11-19T17:25:22;3.08;;;0.70;;
61590;SDS011;71994;52.410;-1.966;2023-11-19T17:28:31;1.38;;;0.50;;
61590;SDS011;71994;52.410;-1.966;2023-11-19T17:31:40;2.90;;;0.70;;
61590;SDS011;71994;52.410;-1.966;2023-11-19T17:34:47;3.25;;;0.80;;
61590;SDS011;71994;52.410;-1.966;2023-11-19T17:37:53;1.60;;;0.52;;
61590;SDS011;71994;52.410;-1.966;2023-11-19T17:40:59;2.53;;;0.77;;
61590;SDS011;71994;52.410;-1.966;2023-11-19T17:44:09;1.98;;;0.60;;
61590;SDS011;71994;52.410;-1.966;2023-11-19T17:47:15;1.45;;;0.60;;
61590;SDS011;71994;52.410;-1.966;2023-11-19T17:50:23;2.35;;;0.70;;
61590;SDS011;71994;52.410;-1.966;2023-11-19T17:53:29;1.90;;;0.60;;
61590;SDS011;71994;52.410;-1.966;2023-11-19T17:56:38;2.55;;;0.68;;
61590;SDS011;71994;52.410;-1.966;2023-11-19T17:59:48;2.13;;;0.70;;
61590;SDS011;71994;52.410;-1.966;2023-11-19T18:02:55;1.48;;;0.70;;
61590;SDS011;71994;52.410;-1.966;2023-11-19T18:06:01;1.88;;;0.70;;
61590;SDS011;71994;52.410;-1.966;2023-11-19T18:09:08;1.10;;;0.47;;
61590;SDS011;71994;52.410;-1.966;2023-11-19T18:15:27;1.23;;;0.45;;
61590;SDS011;71994;52.410;-1.966;2023-11-19T18:18:34;1.92;;;0.60;;
61590;SDS011;71994;52.410;-1.966;2023-11-19T18:21:41;1.48;;;0.50;;
61590;SDS011;71994;52.410;-1.966;2023-11-19T18:24:47;1.65;;;0.70;;
61590;SDS011;71994;52.410;-1.966;2023-11-19T18:27:54;4.00;;;0.60;;
61590;SDS011;71994;52.410;-1.966;2023-11-19T18:31:03;1.17;;;0.47;;
61590;SDS011;71994;52.410;-1.966;2023-11-19T18:34:10;1.85;;;0.50;;
61590;SDS011;71994;52.410;-1.966;2023-11-19T18:40:26;2.78;;;0.60;;
61590;SDS011;71994;52.410;-1.966;2023-11-19T18:43:35;1.30;;;0.52;;
61590;SDS011;71994;52.410;-1.966;2023-11-19T18:46:45;1.63;;;0.70;;
61590;SDS011;71994;52.410;-1.966;2023-11-19T18:49:53;1.88;;;0.70;;
61590;SDS011;71994;52.410;-1.966;2023-11-19T18:53:05;1.67;;;0.60;;
61590;SDS011;71994;52.410;-1.966;2023-11-19T18:56:13;1.35;;;0.60;;
61590;SDS011;71994;52.410;-1.966;2023-11-19T18:59:19;2.35;;;0.68;;
61590;SDS011;71994;52.410;-1.966;2023-11-19T19:02:30;2.20;;;0.80;;
61590;SDS011;71994;52.410;-1.966;2023-11-19T19:05:36;1.67;;;0.53;;
61590;SDS011;71994;52.410;-1.966;2023-11-19T19:08:45;1.48;;;0.70;;
61590;SDS011;71994;52.410;-1.966;2023-11-19T19:11:54;2.03;;;0.80;;
61590;SDS011;71994;52.410;-1.966;2023-11-19T19:15:03;1.33;;;0.80;;
61590;SDS011;71994;52.410;-1.966;2023-11-19T19:18:16;2.28;;;0.80;;